ASK57ND EPWA-LEMD
Flight info
| Callsign | ASK57ND |
|---|---|
| Flight time | N/A |
| Altitude | 36000 |
| Route | SOXER N869 TOMTI DCT ASTEL DCT KONAR DCT OKG DCT AMOSA DCT DKB DCT TEDGO N869 NATOR DCT LUTIX DCT BENOT DCT NEMOS/N0442F370 DCT NINTU DCT MEBAK DCT REPSI DCT LERGA DCT MINSO DCT NARAK DCT AGN DCT MAQAB DCT TIVLI N869 ZAR Z245 TERSA |
| Aircraft | B738/M-SDE2E3FGHIRWXY/LB1 |
Departure
| Time | 2026-04-30 09:03 |
|---|---|
| Airport | Warsaw Chopin Airport (EPWA) |
Arrival
| Time | N/A |
|---|---|
| Airport | Adolfo Suárez Madrid–Barajas Airport (LEMD) |
| Time | Latitude | Longitude | Altitude | Speed | Heading |
|---|---|---|---|---|---|
| 2026-04-30 08:38 | 52.16957 | 20.97189 | 338 ft | 0 kts | 68° |
| 2026-04-30 08:56 | 52.16953 | 20.97173 | 338 ft | 3 kts | 68° |
| 2026-04-30 08:56 | 52.16945 | 20.97140 | 333 ft | 3 kts | 68° |
| 2026-04-30 08:56 | 52.16937 | 20.97108 | 335 ft | 3 kts | 68° |
| 2026-04-30 08:56 | 52.16930 | 20.97081 | 333 ft | 3 kts | 81° |
| 2026-04-30 08:57 | 52.16931 | 20.97050 | 334 ft | 3 kts | 123° |
| 2026-04-30 08:57 | 52.16946 | 20.97026 | 336 ft | 3 kts | 148° |
| 2026-04-30 08:57 | 52.16955 | 20.97017 | 335 ft | 1 kts | 152° |
| 2026-04-30 08:59 | 52.16943 | 20.97028 | 336 ft | 8 kts | 152° |
| 2026-04-30 08:59 | 52.16865 | 20.97096 | 336 ft | 15 kts | 152° |
| 2026-04-30 08:59 | 52.16775 | 20.97174 | 333 ft | 14 kts | 151° |
| 2026-04-30 09:00 | 52.16690 | 20.97251 | 336 ft | 14 kts | 151° |
| 2026-04-30 09:00 | 52.16608 | 20.97320 | 338 ft | 13 kts | 152° |
| 2026-04-30 09:00 | 52.16556 | 20.97435 | 334 ft | 13 kts | 114° |
| 2026-04-30 09:00 | 52.16519 | 20.97564 | 335 ft | 12 kts | 115° |
| 2026-04-30 09:01 | 52.16484 | 20.97691 | 335 ft | 12 kts | 115° |
| 2026-04-30 09:01 | 52.16442 | 20.97800 | 337 ft | 11 kts | 154° |
| 2026-04-30 09:01 | 52.16372 | 20.97769 | 338 ft | 11 kts | 204° |
| 2026-04-30 09:01 | 52.16316 | 20.97726 | 337 ft | 5 kts | 210° |
| 2026-04-30 09:02 | 52.16306 | 20.97672 | 336 ft | 4 kts | 292° |
| 2026-04-30 09:02 | 52.16363 | 20.97468 | 334 ft | 49 kts | 295° |
| 2026-04-30 09:02 | 52.16597 | 20.96632 | 337 ft | 111 kts | 294° |
| 2026-04-30 09:03 | 52.16995 | 20.95221 | 354 ft | 160 kts | 295° |
| 2026-04-30 09:03 | 52.17478 | 20.93528 | 900 ft | 165 kts | 297° |
| 2026-04-30 09:03 | 52.18013 | 20.91803 | 1469 ft | 178 kts | 298° |
| 2026-04-30 09:03 | 52.18457 | 20.89880 | 2100 ft | 186 kts | 277° |
| 2026-04-30 09:04 | 52.18317 | 20.87789 | 2799 ft | 190 kts | 264° |
| 2026-04-30 09:04 | 52.18162 | 20.85643 | 3497 ft | 191 kts | 267° |
| 2026-04-30 09:04 | 52.18008 | 20.83488 | 4158 ft | 192 kts | 264° |
| 2026-04-30 09:04 | 52.18069 | 20.81305 | 4850 ft | 200 kts | 292° |
| 2026-04-30 09:05 | 52.18523 | 20.79106 | 5665 ft | 211 kts | 288° |
| 2026-04-30 09:05 | 52.18869 | 20.76822 | 6403 ft | 193 kts | 288° |
| 2026-04-30 09:05 | 52.19183 | 20.74613 | 6716 ft | 210 kts | 287° |
| 2026-04-30 09:05 | 52.19526 | 20.72207 | 6896 ft | 226 kts | 287° |
| 2026-04-30 09:06 | 52.19645 | 20.69544 | 7027 ft | 251 kts | 260° |
| 2026-04-30 09:06 | 52.19049 | 20.66801 | 7359 ft | 260 kts | 252° |
| 2026-04-30 09:06 | 52.18402 | 20.64023 | 7808 ft | 264 kts | 253° |
| 2026-04-30 09:06 | 52.17761 | 20.61214 | 8284 ft | 265 kts | 253° |
| 2026-04-30 09:07 | 52.17120 | 20.58358 | 8703 ft | 271 kts | 254° |
| 2026-04-30 09:07 | 52.16475 | 20.55465 | 9214 ft | 272 kts | 254° |
| 2026-04-30 09:07 | 52.15827 | 20.52553 | 9735 ft | 275 kts | 254° |
| 2026-04-30 09:07 | 52.15175 | 20.49610 | 10252 ft | 277 kts | 255° |
| 2026-04-30 09:08 | 52.14573 | 20.46583 | 10585 ft | 289 kts | 257° |
| 2026-04-30 09:08 | 52.13964 | 20.43329 | 10747 ft | 311 kts | 257° |
| 2026-04-30 09:08 | 52.13318 | 20.39848 | 10930 ft | 332 kts | 257° |
| 2026-04-30 09:08 | 52.12627 | 20.36157 | 11152 ft | 349 kts | 257° |
| 2026-04-30 09:09 | 52.11902 | 20.32332 | 11639 ft | 357 kts | 256° |
| 2026-04-30 09:09 | 52.11161 | 20.28460 | 12277 ft | 360 kts | 256° |
| 2026-04-30 09:09 | 52.10410 | 20.24548 | 12941 ft | 364 kts | 256° |
| 2026-04-30 09:09 | 52.09651 | 20.20604 | 13612 ft | 368 kts | 256° |
| 2026-04-30 09:10 | 52.08882 | 20.16614 | 14271 ft | 372 kts | 256° |
| 2026-04-30 09:10 | 52.08103 | 20.12574 | 14854 ft | 377 kts | 256° |
| 2026-04-30 09:10 | 52.07310 | 20.08473 | 15422 ft | 382 kts | 256° |
| 2026-04-30 09:10 | 52.06507 | 20.04329 | 16022 ft | 387 kts | 256° |
| 2026-04-30 09:11 | 52.05693 | 20.00131 | 16595 ft | 392 kts | 257° |
| 2026-04-30 09:11 | 52.04865 | 19.95875 | 17146 ft | 398 kts | 256° |
| 2026-04-30 09:11 | 52.04013 | 19.91570 | 17692 ft | 404 kts | 256° |
| 2026-04-30 09:11 | 52.03094 | 19.87230 | 18279 ft | 409 kts | 255° |
| 2026-04-30 09:12 | 52.02138 | 19.82856 | 18839 ft | 414 kts | 255° |
| 2026-04-30 09:12 | 52.01166 | 19.78432 | 19324 ft | 418 kts | 255° |
| 2026-04-30 09:12 | 52.00188 | 19.73962 | 19848 ft | 422 kts | 255° |
| 2026-04-30 09:12 | 51.99539 | 19.70989 | 20201 ft | 424 kts | 255° |
| 2026-04-30 09:13 | 51.98552 | 19.66456 | 20693 ft | 428 kts | 255° |
| 2026-04-30 09:13 | 51.97776 | 19.62887 | 21076 ft | 431 kts | 255° |
| 2026-04-30 09:13 | 51.96771 | 19.58279 | 21565 ft | 435 kts | 255° |
| 2026-04-30 09:13 | 51.95754 | 19.53637 | 22049 ft | 439 kts | 255° |
| 2026-04-30 09:14 | 51.94722 | 19.48957 | 22535 ft | 443 kts | 255° |
| 2026-04-30 09:14 | 51.93678 | 19.44244 | 22993 ft | 447 kts | 255° |
| 2026-04-30 09:14 | 51.92624 | 19.39490 | 23457 ft | 450 kts | 255° |
| 2026-04-30 09:14 | 51.91558 | 19.34692 | 23918 ft | 454 kts | 255° |
| 2026-04-30 09:15 | 51.90484 | 19.29866 | 24304 ft | 458 kts | 255° |
| 2026-04-30 09:15 | 51.89399 | 19.25002 | 24690 ft | 461 kts | 255° |
| 2026-04-30 09:15 | 51.88306 | 19.20105 | 25064 ft | 464 kts | 255° |
| 2026-04-30 09:15 | 51.87203 | 19.15180 | 25434 ft | 467 kts | 255° |
| 2026-04-30 09:16 | 51.86094 | 19.10223 | 25796 ft | 470 kts | 256° |
| 2026-04-30 09:16 | 51.85002 | 19.05229 | 26145 ft | 473 kts | 256° |
| 2026-04-30 09:16 | 51.83911 | 19.00192 | 26495 ft | 476 kts | 256° |
| 2026-04-30 09:16 | 51.82812 | 18.95124 | 26837 ft | 479 kts | 256° |
| 2026-04-30 09:17 | 51.81700 | 18.90030 | 27170 ft | 482 kts | 256° |
| 2026-04-30 09:17 | 51.80575 | 18.84909 | 27512 ft | 485 kts | 256° |
| 2026-04-30 09:17 | 51.79440 | 18.79761 | 27833 ft | 488 kts | 256° |
| 2026-04-30 09:17 | 51.78293 | 18.74580 | 28104 ft | 491 kts | 256° |
| 2026-04-30 09:18 | 51.77137 | 18.69364 | 28351 ft | 496 kts | 256° |
| 2026-04-30 09:18 | 51.75969 | 18.64109 | 28662 ft | 498 kts | 256° |
| 2026-04-30 09:18 | 51.74794 | 18.58836 | 28997 ft | 501 kts | 256° |
| 2026-04-30 09:18 | 51.73628 | 18.53614 | 29308 ft | 503 kts | 256° |
| 2026-04-30 09:19 | 51.72436 | 18.48292 | 29599 ft | 506 kts | 256° |
| 2026-04-30 09:19 | 51.71236 | 18.42941 | 29878 ft | 509 kts | 256° |
| 2026-04-30 09:19 | 51.70027 | 18.37567 | 30162 ft | 511 kts | 256° |
| 2026-04-30 09:19 | 51.68810 | 18.32172 | 30430 ft | 514 kts | 256° |
| 2026-04-30 09:20 | 51.67584 | 18.26750 | 30682 ft | 516 kts | 256° |
| 2026-04-30 09:20 | 51.66353 | 18.21322 | 30974 ft | 516 kts | 256° |
| 2026-04-30 09:20 | 51.65120 | 18.15904 | 31292 ft | 515 kts | 256° |
| 2026-04-30 09:20 | 51.63885 | 18.10488 | 31570 ft | 516 kts | 256° |
| 2026-04-30 09:21 | 51.62647 | 18.05064 | 31794 ft | 518 kts | 256° |
| 2026-04-30 09:21 | 51.61402 | 17.99622 | 32094 ft | 518 kts | 256° |
| 2026-04-30 09:21 | 51.60158 | 17.94199 | 32450 ft | 516 kts | 256° |
| 2026-04-30 09:21 | 51.58913 | 17.88793 | 32790 ft | 515 kts | 256° |
| 2026-04-30 09:22 | 51.57661 | 17.83389 | 33056 ft | 516 kts | 255° |
| 2026-04-30 09:22 | 51.56397 | 17.77979 | 33303 ft | 517 kts | 255° |
| 2026-04-30 09:22 | 51.55129 | 17.72575 | 33580 ft | 517 kts | 255° |
| 2026-04-30 09:22 | 51.53856 | 17.67168 | 33887 ft | 517 kts | 255° |
| 2026-04-30 09:23 | 51.52585 | 17.61774 | 34176 ft | 516 kts | 255° |
| 2026-04-30 09:23 | 51.51313 | 17.56380 | 34402 ft | 517 kts | 255° |
| 2026-04-30 09:23 | 51.50038 | 17.50983 | 34578 ft | 518 kts | 255° |
| 2026-04-30 09:23 | 51.48758 | 17.45578 | 34795 ft | 518 kts | 255° |
| 2026-04-30 09:24 | 51.47478 | 17.40192 | 35136 ft | 514 kts | 255° |
| 2026-04-30 09:24 | 51.46209 | 17.34864 | 35545 ft | 509 kts | 255° |
| 2026-04-30 09:24 | 51.44956 | 17.29593 | 36009 ft | 502 kts | 255° |
| 2026-04-30 09:24 | 51.43721 | 17.24395 | 36462 ft | 497 kts | 254° |
| 2026-04-30 09:25 | 51.41256 | 17.14001 | 36494 ft | 500 kts | 254° |
| 2026-04-30 09:25 | 51.38782 | 17.03631 | 36485 ft | 496 kts | 254° |
| 2026-04-30 09:26 | 51.36318 | 16.93375 | 36470 ft | 492 kts | 254° |
| 2026-04-30 09:26 | 51.33860 | 16.83181 | 36490 ft | 491 kts | 254° |
| 2026-04-30 09:27 | 51.31394 | 16.73001 | 36498 ft | 491 kts | 254° |
| 2026-04-30 09:27 | 51.28917 | 16.62829 | 36501 ft | 492 kts | 253° |
| 2026-04-30 09:28 | 51.26427 | 16.52649 | 36497 ft | 493 kts | 253° |
| 2026-04-30 09:28 | 51.23937 | 16.42515 | 36498 ft | 494 kts | 253° |
| 2026-04-30 09:29 | 51.21418 | 16.32314 | 36498 ft | 494 kts | 253° |
| 2026-04-30 09:29 | 51.18886 | 16.22105 | 36499 ft | 496 kts | 253° |
| 2026-04-30 09:30 | 51.16339 | 16.11884 | 36503 ft | 497 kts | 253° |
| 2026-04-30 09:30 | 51.13776 | 16.01644 | 36504 ft | 498 kts | 253° |
| 2026-04-30 09:31 | 51.11203 | 15.91412 | 36504 ft | 498 kts | 253° |
| 2026-04-30 09:31 | 51.08618 | 15.81179 | 36453 ft | 499 kts | 253° |
| 2026-04-30 09:32 | 51.06027 | 15.70972 | 36494 ft | 497 kts | 252° |
| 2026-04-30 09:32 | 51.03435 | 15.60794 | 36500 ft | 496 kts | 252° |
| 2026-04-30 09:33 | 51.00834 | 15.50643 | 36496 ft | 496 kts | 252° |
| 2026-04-30 09:33 | 50.98217 | 15.40533 | 36504 ft | 495 kts | 252° |
| 2026-04-30 09:34 | 50.95599 | 15.30452 | 36501 ft | 494 kts | 252° |
| 2026-04-30 09:34 | 50.93343 | 15.20232 | 36475 ft | 489 kts | 257° |
| 2026-04-30 09:35 | 50.91318 | 15.09978 | 36487 ft | 487 kts | 257° |
| 2026-04-30 09:35 | 50.89251 | 14.99760 | 36504 ft | 487 kts | 257° |
| 2026-04-30 09:36 | 50.87143 | 14.89575 | 36510 ft | 487 kts | 257° |
| 2026-04-30 09:36 | 50.84988 | 14.79475 | 36504 ft | 488 kts | 255° |
| 2026-04-30 09:37 | 50.82692 | 14.69357 | 36503 ft | 489 kts | 255° |
| 2026-04-30 09:37 | 50.80378 | 14.59258 | 36499 ft | 488 kts | 255° |
| 2026-04-30 09:38 | 50.78074 | 14.49167 | 36506 ft | 488 kts | 255° |
| 2026-04-30 09:38 | 50.75768 | 14.39064 | 36498 ft | 489 kts | 255° |
| 2026-04-30 09:39 | 50.73452 | 14.28964 | 36504 ft | 489 kts | 255° |
| 2026-04-30 09:39 | 50.71124 | 14.18865 | 36486 ft | 490 kts | 254° |
| 2026-04-30 09:40 | 50.68785 | 14.08763 | 36477 ft | 490 kts | 254° |
| 2026-04-30 09:40 | 50.66441 | 13.98697 | 36493 ft | 489 kts | 254° |
| 2026-04-30 09:41 | 50.64093 | 13.88654 | 36500 ft | 489 kts | 254° |
| 2026-04-30 09:41 | 50.61734 | 13.78610 | 36494 ft | 489 kts | 254° |
| 2026-04-30 09:42 | 50.59370 | 13.68591 | 36497 ft | 488 kts | 254° |
| 2026-04-30 09:42 | 50.56997 | 13.58583 | 36493 ft | 488 kts | 253° |
| 2026-04-30 09:43 | 50.54618 | 13.48595 | 36507 ft | 487 kts | 253° |
| 2026-04-30 09:43 | 50.52232 | 13.38618 | 36486 ft | 488 kts | 253° |
| 2026-04-30 09:44 | 50.49838 | 13.28659 | 36490 ft | 487 kts | 253° |
| 2026-04-30 09:44 | 50.47457 | 13.18787 | 36494 ft | 487 kts | 253° |
| 2026-04-30 09:45 | 50.44944 | 13.08911 | 36473 ft | 490 kts | 246° |
| 2026-04-30 09:45 | 50.41024 | 13.00129 | 36484 ft | 494 kts | 229° |
| 2026-04-30 09:46 | 50.36374 | 12.92178 | 36455 ft | 495 kts | 229° |
| 2026-04-30 09:46 | 50.31725 | 12.84230 | 36454 ft | 495 kts | 229° |
| 2026-04-30 09:47 | 50.27116 | 12.76236 | 36458 ft | 495 kts | 229° |
| 2026-04-30 09:47 | 50.22520 | 12.68241 | 36463 ft | 495 kts | 229° |
| 2026-04-30 09:48 | 50.17916 | 12.60263 | 36462 ft | 495 kts | 229° |
| 2026-04-30 09:48 | 50.13304 | 12.52301 | 36471 ft | 495 kts | 229° |
| 2026-04-30 09:49 | 50.08688 | 12.44356 | 36471 ft | 495 kts | 229° |
| 2026-04-30 09:49 | 50.04691 | 12.35751 | 36480 ft | 488 kts | 245° |
| 2026-04-30 09:50 | 50.01569 | 12.26373 | 36472 ft | 488 kts | 246° |
| 2026-04-30 09:50 | 49.98461 | 12.17008 | 36476 ft | 488 kts | 245° |
| 2026-04-30 09:51 | 49.95304 | 12.07681 | 36467 ft | 487 kts | 245° |
| 2026-04-30 09:51 | 49.92123 | 11.98400 | 36453 ft | 487 kts | 245° |
| 2026-04-30 09:52 | 49.88929 | 11.89130 | 36446 ft | 487 kts | 245° |
| 2026-04-30 09:52 | 49.85735 | 11.79886 | 36444 ft | 485 kts | 244° |
| 2026-04-30 09:53 | 49.82544 | 11.70679 | 36442 ft | 485 kts | 244° |
| 2026-04-30 09:53 | 49.79369 | 11.61552 | 36450 ft | 484 kts | 244° |
| 2026-04-30 09:54 | 49.76170 | 11.52385 | 36447 ft | 484 kts | 244° |
| 2026-04-30 09:54 | 49.72966 | 11.43239 | 36449 ft | 483 kts | 244° |
| 2026-04-30 09:55 | 49.69761 | 11.34120 | 36453 ft | 483 kts | 244° |
| 2026-04-30 09:55 | 49.66548 | 11.25012 | 36440 ft | 482 kts | 244° |
| 2026-04-30 09:56 | 49.63332 | 11.15928 | 36431 ft | 482 kts | 243° |
| 2026-04-30 09:56 | 49.60112 | 11.06864 | 36425 ft | 482 kts | 243° |
| 2026-04-30 09:57 | 49.56907 | 10.97873 | 36433 ft | 482 kts | 243° |
| 2026-04-30 09:57 | 49.53677 | 10.88838 | 36433 ft | 482 kts | 243° |
| 2026-04-30 09:58 | 49.50217 | 10.79993 | 36422 ft | 484 kts | 233° |
| 2026-04-30 09:58 | 49.45598 | 10.72466 | 36417 ft | 484 kts | 225° |
| 2026-04-30 09:59 | 49.36114 | 10.57823 | 36412 ft | 483 kts | 226° |
| 2026-04-30 10:00 | 49.29059 | 10.46770 | 36414 ft | 483 kts | 226° |
| 2026-04-30 10:01 | 49.22013 | 10.35776 | 36422 ft | 482 kts | 226° |
| 2026-04-30 10:02 | 49.14956 | 10.24818 | 36385 ft | 481 kts | 226° |
| 2026-04-30 10:02 | 49.10573 | 10.17120 | 36376 ft | 480 kts | 232° |
| 2026-04-30 10:03 | 49.07140 | 10.10477 | 36376 ft | 479 kts | 232° |
| 2026-04-30 10:03 | 49.03016 | 10.02513 | 36371 ft | 478 kts | 232° |
| 2026-04-30 10:04 | 48.98850 | 9.94615 | 36365 ft | 478 kts | 231° |
| 2026-04-30 10:04 | 48.94664 | 9.86764 | 36366 ft | 477 kts | 231° |
| 2026-04-30 10:05 | 48.90475 | 9.78938 | 36361 ft | 477 kts | 231° |
| 2026-04-30 10:05 | 48.86289 | 9.71133 | 36359 ft | 476 kts | 231° |
| 2026-04-30 10:06 | 48.82098 | 9.63340 | 36324 ft | 476 kts | 231° |
| 2026-04-30 10:06 | 48.77916 | 9.55584 | 36330 ft | 475 kts | 231° |
| 2026-04-30 10:07 | 48.73755 | 9.47890 | 36326 ft | 475 kts | 231° |
| 2026-04-30 10:07 | 48.69565 | 9.40164 | 36322 ft | 474 kts | 231° |
| 2026-04-30 10:08 | 48.65377 | 9.32462 | 36325 ft | 474 kts | 231° |
| 2026-04-30 10:08 | 48.61206 | 9.24743 | 36315 ft | 473 kts | 233° |
| 2026-04-30 10:09 | 48.57346 | 9.16696 | 36321 ft | 473 kts | 236° |
| 2026-04-30 10:09 | 48.53583 | 9.08561 | 36306 ft | 472 kts | 235° |
| 2026-04-30 10:10 | 48.49795 | 9.00465 | 36301 ft | 472 kts | 234° |
| 2026-04-30 10:10 | 48.45985 | 8.92421 | 36301 ft | 471 kts | 234° |
| 2026-04-30 10:11 | 48.42162 | 8.84395 | 36294 ft | 471 kts | 234° |
| 2026-04-30 10:11 | 48.38341 | 8.76392 | 36284 ft | 471 kts | 234° |
| 2026-04-30 10:12 | 48.34513 | 8.68397 | 36284 ft | 471 kts | 234° |
| 2026-04-30 10:12 | 48.30683 | 8.60419 | 36283 ft | 470 kts | 234° |
| 2026-04-30 10:13 | 48.26854 | 8.52465 | 36275 ft | 469 kts | 234° |
| 2026-04-30 10:13 | 48.23029 | 8.44542 | 36260 ft | 468 kts | 234° |
| 2026-04-30 10:14 | 48.19212 | 8.36658 | 36259 ft | 466 kts | 233° |
| 2026-04-30 10:14 | 48.12039 | 8.27076 | 36274 ft | 461 kts | 211° |
| 2026-04-30 10:15 | 48.06607 | 8.21968 | 36247 ft | 461 kts | 211° |
| 2026-04-30 10:15 | 48.01190 | 8.16856 | 36242 ft | 460 kts | 211° |
| 2026-04-30 10:16 | 47.95824 | 8.11737 | 36259 ft | 460 kts | 212° |
| 2026-04-30 10:17 | 47.87721 | 8.03985 | 36247 ft | 462 kts | 212° |
| 2026-04-30 10:17 | 47.79573 | 7.96220 | 36249 ft | 465 kts | 212° |
| 2026-04-30 10:18 | 47.74118 | 7.91039 | 36239 ft | 466 kts | 212° |
| 2026-04-30 10:19 | 47.65914 | 7.83273 | 36238 ft | 466 kts | 212° |
| 2026-04-30 10:19 | 47.60445 | 7.78112 | 36236 ft | 466 kts | 212° |
| 2026-04-30 10:20 | 47.54982 | 7.72970 | 36242 ft | 464 kts | 212° |
| 2026-04-30 10:20 | 47.46816 | 7.65307 | 36241 ft | 462 kts | 212° |
| 2026-04-30 10:21 | 47.41389 | 7.60229 | 36236 ft | 461 kts | 212° |
| 2026-04-30 10:21 | 47.35976 | 7.55178 | 36230 ft | 460 kts | 212° |